Aeroporto :
LOGIN :

Iscrizione | Disclaimer

   EN    FR    IT 

 










Sommario :    VFR   VFR Marginale   IFR   IFR Intensivo   IFR Molto Intensivo
Visibilità : 
Base nubi : 
>= 8 km
>= 3000ft
5 / 8 km
1000 / 3000 ft
1500m / 5 km
500 / 1000 ft
800 / 1500m
200 / 500 ft
< 800m
< 200 ft
Simboli :   Temporali  Nebbia  Neve Forte  Precipitazioni Forti  Vento > 20 kt
SIGMETs :   Varie  Temporali  Ghiacco  Turbolenza  Onda orograficha  Ceneri Vulcaniche






- Altitudine del aeroporto : 44 ft
- Codice IATA : SOU


EGHI - Southampton

ULTIMO METAR :
  • 181650Z 34002KT CAVOK 05/00 Q1031

METARs OBSOLETI :
  • 181620Z 36003KT CAVOK 05/M00 Q1031
  • 181550Z 36005KT CAVOK 06/01 Q1030
  • 181520Z 01005KT CAVOK 07/00 Q1030
  • 181450Z 36005KT 320V020 CAVOK 07/01 Q1030
  • 181420Z 35006KT CAVOK 08/01 Q1029
  • 181350Z 36006KT 320V020 CAVOK 08/00 Q1029

TAF COR TAF EGHI
Valido dal 18 a 15 ore il 18 a 23 ore UTC


181410Z 1815/1823 36006KT 9999 FEW040
PROB30
TEMPO 1820/1823 8000
ATIS : +44 23 8062 7103



MetMap, La meteo Aeronautica in un colpo d'occhio ! - Copyright ORBIFLY Dicembre 2007 - Disclaimer

ORBIFLY MET'MAP TEAM :

Programmazione e sviluppo : Alexandra Zaïnal
Concezione : Baudouin d'Aumeries
Aiuto per la programmazione : Marc-Olivier Méhu
Supporto tecnico e logistico : Manuel Goepfert
Aiuto per la traduzione : Arnaldo La Scala

Contatto : metmap@orbifly.com




FONTI E CREDITI :

   NOAA